English Center, Pennsylvania
Current Conditions -  °F | °C
As of 5:54 AM on Saturday 20 Dec 2014 (Local Time) from KIPT Reporting Station
Overcast Overcast  
Wind Chill: -4°   Ceiling: 3000
Heat Index: -1°   Visibility: 10mi
Dew Point: -7°   Wind: 5mph
Humidity: 66%   Direction: 270°W
Pressure: 30.26"   Gusts: NA
Location:  41.3465°N, 77.3228°W
Report Text: KIPT 201054Z AUTO 27004KT 10SM OVC030 M01/M07 A3026 RMK AO2 SLP252 T10111067
Loading
Personal Weather Stations






























Interactive Weather Map New forecast layout! Learn more

10-Day Weather Forecast

Advertisements
Track Severe Weather on mobile